Portada
METAR-TAF:

METAR-TAF

Aeropuertos :

Cherokee County Airport

Canton, Georgia, Estados Unidos

latitud: 34-18-38N, longitud: 084-25-26W, altitud: 372 m

Observación

El informe se hizo hace 33 minutos, a las 19:10 UTC
Viento 4 kt del oeste-noroeste
Temperatura 8°C
Humedad 100%
Presión 1013 hPa
Visibilidad: 8.0 km
Cielo cubierto a una altura de 400 ft
neblina

METAR: KCNI 271910Z AUTO 30004KT 5SM BR OVC004 08/08 A2992 RMK AO2

Hora: 14:43 (19:43 UTC)


TAF: falta

Observaciones y pronósticos meteorológicos de más de 4000 aeropuertos (mensajes METAR y TAF).

Los puntos amarillos y rojos representan las estaciones disponibles.

Ponga el ratón en el punto deseado para ver el nombre de la estación.

Haga clic para ver las observaciones y los pronósticos meteorológicos.

Para cambiar el mapa : haga clic en los botones verdes con una cruz de color negro para hacer un zoom, en el botón verde con un guión para alejar o en las flechas verdes para mapas adyacentes.


METAR-TAF: